createdAt,value
2017-10-25T00:00:00.634Z,7.84
2017-10-25T00:00:04.635Z,7.83
2017-10-25T00:00:08.721Z,7.83
2017-10-25T00:00:12.801Z,7.84
2017-10-25T00:00:16.880Z,7.83
2017-10-25T00:00:21.107Z,7.83
2017-10-25T00:00:24.919Z,7.84
2017-10-25T00:00:28.998Z,7.83
2017-10-25T00:00:33.343Z,7.84
2017-10-25T00:00:37.458Z,7.84
2017-10-25T00:00:41.544Z,7.84
2017-10-25T00:00:45.757Z,7.84
2017-10-25T00:00:49.571Z,7.84
2017-10-25T00:00:53.521Z,7.84
2017-10-25T00:00:57.605Z,7.85
2017-10-25T00:01:02.260Z,7.85
2017-10-25T00:01:06.335Z,7.84
2017-10-25T00:01:10.543Z,7.85
2017-10-25T00:01:14.630Z,7.84
2017-10-25T00:01:18.446Z,7.85
2017-10-25T00:01:22.657Z,7.85
2017-10-25T00:01:26.601Z,7.85
2017-10-25T00:01:30.553Z,7.85
2017-10-25T00:01:34.500Z,7.85
2017-10-25T00:01:38.445Z,7.85
2017-10-25T00:01:42.266Z,7.85
2017-10-25T00:01:46.356Z,7.85
2017-10-25T00:01:50.303Z,7.85
2017-10-25T00:01:54.520Z,7.85
2017-10-25T00:01:58.340Z,7.85
2017-10-25T00:02:02.489Z,7.86
2017-10-25T00:02:06.568Z,7.86
2017-10-25T00:02:10.649Z,7.85
2017-10-25T00:02:14.730Z,7.86
2017-10-25T00:02:18.410Z,7.87
2017-10-25T00:02:22.220Z,7.86
2017-10-25T00:02:26.165Z,7.87
2017-10-25T00:02:30.381Z,7.86
2017-10-25T00:02:34.459Z,7.86
2017-10-25T00:02:38.536Z,7.86
2017-10-25T00:02:42.489Z,7.87
2017-10-25T00:02:46.176Z,7.87
2017-10-25T00:02:50.388Z,7.86
2017-10-25T00:02:54.337Z,7.87
2017-10-25T00:02:58.413Z,7.87
2017-10-25T00:03:02.373Z,7.87
2017-10-25T00:03:06.452Z,7.86
2017-10-25T00:03:10.663Z,7.87
2017-10-25T00:03:14.741Z,7.87
2017-10-25T00:03:18.819Z,7.87
2017-10-25T00:03:22.765Z,7.88
2017-10-25T00:03:26.853Z,7.87
2017-10-25T00:03:30.680Z,7.87
2017-10-25T00:03:34.894Z,7.87
2017-10-25T00:03:39.104Z,7.88
2017-10-25T00:03:43.331Z,7.88
2017-10-25T00:03:47.403Z,7.88
2017-10-25T00:03:51.743Z,7.88
2017-10-25T00:03:55.953Z,7.87
2017-10-25T00:03:59.769Z,7.88
2017-10-25T00:04:04.190Z,7.87
2017-10-25T00:04:08.144Z,7.87
2017-10-25T00:04:12.222Z,7.87
2017-10-25T00:04:16.166Z,7.87
2017-10-25T00:04:20.377Z,7.87
2017-10-25T00:04:24.456Z,7.87
2017-10-25T00:04:28.270Z,7.88
2017-10-25T00:04:32.219Z,7.88
2017-10-25T00:04:36.197Z,7.88
2017-10-25T00:04:40.273Z,7.88
2017-10-25T00:04:44.216Z,7.88
2017-10-25T00:04:48.427Z,7.88
2017-10-25T00:04:52.244Z,7.88
2017-10-25T00:04:56.456Z,7.87
2017-10-25T00:05:00.533Z,7.88
2017-10-25T00:05:04.674Z,7.89
2017-10-25T00:05:09.154Z,7.89
2017-10-25T00:05:13.240Z,7.89
2017-10-25T00:05:17.455Z,7.88
2017-10-25T00:05:21.400Z,7.88
2017-10-25T00:05:25.743Z,7.88
2017-10-25T00:05:29.687Z,7.89
2017-10-25T00:05:33.640Z,7.89
2017-10-25T00:05:37.454Z,7.89
2017-10-25T00:05:41.662Z,7.88
2017-10-25T00:05:45.494Z,7.89
2017-10-25T00:05:49.572Z,7.89
2017-10-25T00:05:53.534Z,7.89
2017-10-25T00:05:57.619Z,7.88
2017-10-25T00:06:01.692Z,7.9
2017-10-25T00:06:05.636Z,7.89
2017-10-25T00:06:09.723Z,7.89
2017-10-25T00:06:13.672Z,7.9
2017-10-25T00:06:17.889Z,7.89
2017-10-25T00:06:21.969Z,7.89
2017-10-25T00:06:25.798Z,7.89
2017-10-25T00:06:29.881Z,7.9
2017-10-25T00:06:33.822Z,7.89
2017-10-25T00:06:37.903Z,7.9
2017-10-25T00:06:41.872Z,7.9
2017-10-25T00:06:45.947Z,7.9
2017-10-25T00:06:50.038Z,7.9
2017-10-25T00:06:53.869Z,7.9
2017-10-25T00:06:57.683Z,7.89
2017-10-25T00:07:01.836Z,7.89
2017-10-25T00:07:05.918Z,7.9
2017-10-25T00:07:09.729Z,7.89
2017-10-25T00:07:13.946Z,7.9
2017-10-25T00:07:18.161Z,7.9
2017-10-25T00:07:22.241Z,7.9
2017-10-25T00:07:26.323Z,7.91
2017-10-25T00:07:30.273Z,7.89
2017-10-25T00:07:34.353Z,7.9
2017-10-25T00:07:38.432Z,7.91
2017-10-25T00:07:42.380Z,7.9
2017-10-25T00:07:46.729Z,7.9
2017-10-25T00:07:50.550Z,7.9
2017-10-25T00:07:54.631Z,7.91
2017-10-25T00:07:58.714Z,7.9
2017-10-25T00:08:02.927Z,7.91
2017-10-25T00:08:07.002Z,7.91
2017-10-25T00:08:11.084Z,7.91
2017-10-25T00:08:15.029Z,7.91
2017-10-25T00:08:19.113Z,7.91
2017-10-25T00:08:23.320Z,7.91
2017-10-25T00:08:27.133Z,7.9
2017-10-25T00:08:31.352Z,7.91
2017-10-25T00:08:35.162Z,7.91
2017-10-25T00:08:39.382Z,7.91
2017-10-25T00:08:43.746Z,7.92
2017-10-25T00:08:48.083Z,7.91
2017-10-25T00:08:51.895Z,7.91
2017-10-25T00:08:55.712Z,7.91
2017-10-25T00:08:59.524Z,7.9
2017-10-25T00:09:03.607Z,7.91
2017-10-25T00:09:07.553Z,7.91
2017-10-25T00:09:11.370Z,7.91
2017-10-25T00:09:15.632Z,7.91
2017-10-25T00:09:19.448Z,7.92
2017-10-25T00:09:23.397Z,7.92
2017-10-25T00:09:27.470Z,7.91
2017-10-25T00:09:31.552Z,7.91
2017-10-25T00:09:35.398Z,7.91
2017-10-25T00:09:39.210Z,7.91
2017-10-25T00:09:43.159Z,7.91
2017-10-25T00:09:47.249Z,7.92
2017-10-25T00:09:51.064Z,7.92
2017-10-25T00:09:55.015Z,7.92
2017-10-25T00:09:59.101Z,7.91
2017-10-25T00:10:03.050Z,7.91
2017-10-25T00:10:07.258Z,7.9
2017-10-25T00:10:11.348Z,7.91
2017-10-25T00:10:15.432Z,7.91
2017-10-25T00:10:19.773Z,7.91
2017-10-25T00:10:23.732Z,7.92
2017-10-25T00:10:27.812Z,7.91
2017-10-25T00:10:31.755Z,7.91
2017-10-25T00:10:35.705Z,7.91
2017-10-25T00:10:39.650Z,7.91
2017-10-25T00:10:43.762Z,7.9
2017-10-25T00:10:47.834Z,7.91
2017-10-25T00:10:51.781Z,7.91
2017-10-25T00:10:55.600Z,7.91
2017-10-25T00:10:59.804Z,7.91
2017-10-25T00:11:03.895Z,7.9
2017-10-25T00:11:07.711Z,7.91
2017-10-25T00:11:11.923Z,7.91
2017-10-25T00:11:16.136Z,7.91
2017-10-25T00:11:20.220Z,7.91
2017-10-25T00:11:24.171Z,7.91
2017-10-25T00:11:27.987Z,7.91
2017-10-25T00:11:32.188Z,7.91
2017-10-25T00:11:36.007Z,7.9
2017-10-25T00:11:40.087Z,7.9
2017-10-25T00:11:44.045Z,7.9
2017-10-25T00:11:48.128Z,7.91
2017-10-25T00:11:52.213Z,7.9
2017-10-25T00:11:56.286Z,7.9
2017-10-25T00:12:00.368Z,7.9
2017-10-25T00:12:04.469Z,7.9
2017-10-25T00:12:08.674Z,7.9
2017-10-25T00:12:12.761Z,7.9
2017-10-25T00:12:16.713Z,7.91
2017-10-25T00:12:20.938Z,7.89
2017-10-25T00:12:25.018Z,7.89
2017-10-25T00:12:28.963Z,7.9
2017-10-25T00:12:32.905Z,7.9
2017-10-25T00:12:36.981Z,7.9
2017-10-25T00:12:41.325Z,7.9
2017-10-25T00:12:45.283Z,7.91
2017-10-25T00:12:49.486Z,7.9
2017-10-25T00:12:53.432Z,7.89
2017-10-25T00:12:57.506Z,7.9
2017-10-25T00:13:01.472Z,7.89
2017-10-25T00:13:05.540Z,7.89
2017-10-25T00:13:09.753Z,7.9
2017-10-25T00:13:13.573Z,7.9
2017-10-25T00:13:17.255Z,7.9
2017-10-25T00:13:21.333Z,7.89
2017-10-25T00:13:25.280Z,7.89
2017-10-25T00:13:29.092Z,7.9
2017-10-25T00:13:33.169Z,7.89
2017-10-25T00:13:37.125Z,7.89
2017-10-25T00:13:41.340Z,7.88
2017-10-25T00:13:45.557Z,7.89
2017-10-25T00:13:49.369Z,7.89
2017-10-25T00:13:53.315Z,7.88
2017-10-25T00:13:57.125Z,7.89
2017-10-25T00:14:01.473Z,7.89
2017-10-25T00:14:05.343Z,7.88
2017-10-25T00:14:09.310Z,7.89
2017-10-25T00:14:13.259Z,7.88
2017-10-25T00:14:17.467Z,7.88
2017-10-25T00:14:21.438Z,7.88
2017-10-25T00:14:25.779Z,7.88
2017-10-25T00:14:29.725Z,7.88
2017-10-25T00:14:33.543Z,7.88
2017-10-25T00:14:37.759Z,7.87
2017-10-25T00:14:41.704Z,7.88
2017-10-25T00:14:45.917Z,7.87
2017-10-25T00:14:50.130Z,7.89
2017-10-25T00:14:54.076Z,7.88
2017-10-25T00:14:58.296Z,7.87
2017-10-25T00:15:02.368Z,7.87
2017-10-25T00:15:06.317Z,7.88
2017-10-25T00:15:10.258Z,7.87
2017-10-25T00:15:14.228Z,7.87
2017-10-25T00:15:18.439Z,7.86
2017-10-25T00:15:22.380Z,7.87
2017-10-25T00:15:26.464Z,7.87
2017-10-25T00:15:30.683Z,7.87
2017-10-25T00:15:34.502Z,7.86
2017-10-25T00:15:38.445Z,7.86
2017-10-25T00:15:42.394Z,7.86
2017-10-25T00:15:46.615Z,7.87
2017-10-25T00:15:50.562Z,7.86
2017-10-25T00:15:54.771Z,7.86
2017-10-25T00:15:58.713Z,7.85
2017-10-25T00:16:03.054Z,7.85
2017-10-25T00:16:06.873Z,7.85
2017-10-25T00:16:10.950Z,7.86
2017-10-25T00:16:15.169Z,7.86
2017-10-25T00:16:19.512Z,7.85
2017-10-25T00:16:23.453Z,7.85
2017-10-25T00:16:27.530Z,7.85
2017-10-25T00:16:31.344Z,7.85
2017-10-25T00:16:35.558Z,7.86
2017-10-25T00:16:39.508Z,7.85
2017-10-25T00:16:43.589Z,7.84
2017-10-25T00:16:47.670Z,7.85
2017-10-25T00:16:51.879Z,7.85
2017-10-25T00:16:55.826Z,7.84
2017-10-25T00:16:59.641Z,7.84
2017-10-25T00:17:03.935Z,7.85
2017-10-25T00:17:07.744Z,7.85
2017-10-25T00:17:11.841Z,7.83
2017-10-25T00:17:15.674Z,7.84
2017-10-25T00:17:19.890Z,7.84
2017-10-25T00:17:23.839Z,7.83
2017-10-25T00:17:27.798Z,7.84
2017-10-25T00:17:31.747Z,7.83
2017-10-25T00:17:35.561Z,7.83
2017-10-25T00:17:39.636Z,7.84
2017-10-25T00:17:43.597Z,7.83
2017-10-25T00:17:47.277Z,7.84
2017-10-25T00:17:51.235Z,7.83
2017-10-25T00:17:55.190Z,7.83
2017-10-25T00:17:59.015Z,7.83
2017-10-25T00:18:03.315Z,7.83
2017-10-25T00:18:07.559Z,7.83
2017-10-25T00:18:11.494Z,7.82
2017-10-25T00:18:15.704Z,7.83
2017-10-25T00:18:19.513Z,7.83
2017-10-25T00:18:23.592Z,7.82
2017-10-25T00:18:27.547Z,7.83
2017-10-25T00:18:31.358Z,7.83
2017-10-25T00:18:35.436Z,7.82
2017-10-25T00:18:39.647Z,7.82
2017-10-25T00:18:43.459Z,7.82
2017-10-25T00:18:47.143Z,7.82
2017-10-25T00:18:51.102Z,7.82
2017-10-25T00:18:54.928Z,7.82
2017-10-25T00:18:59.149Z,7.81
2017-10-25T00:19:03.232Z,7.82
2017-10-25T00:19:07.179Z,7.81
2017-10-25T00:19:11.252Z,7.82
2017-10-25T00:19:15.331Z,7.82
2017-10-25T00:19:19.012Z,7.81
2017-10-25T00:19:23.087Z,7.82
2017-10-25T00:19:27.034Z,7.82
2017-10-25T00:19:30.991Z,7.81
2017-10-25T00:19:35.330Z,7.81
2017-10-25T00:19:39.148Z,7.81
2017-10-25T00:19:43.092Z,7.81
2017-10-25T00:19:47.184Z,7.81
2017-10-25T00:19:51.392Z,7.8
2017-10-25T00:19:55.341Z,7.82
2017-10-25T00:19:59.305Z,7.81
2017-10-25T00:20:03.040Z,7.81
2017-10-25T00:20:07.117Z,7.81
2017-10-25T00:20:11.066Z,7.82
2017-10-25T00:20:15.402Z,7.81
2017-10-25T00:20:19.475Z,7.8
2017-10-25T00:20:23.427Z,7.81
2017-10-25T00:20:27.244Z,7.81
2017-10-25T00:20:31.060Z,7.8
2017-10-25T00:20:35.275Z,7.81
2017-10-25T00:20:39.085Z,7.8
2017-10-25T00:20:43.301Z,7.8
2017-10-25T00:20:47.383Z,7.81
2017-10-25T00:20:51.471Z,7.81
2017-10-25T00:20:55.815Z,7.81
2017-10-25T00:20:59.626Z,7.81
2017-10-25T00:21:03.807Z,7.81
2017-10-25T00:21:07.759Z,7.81
2017-10-25T00:21:11.579Z,7.8
2017-10-25T00:21:15.537Z,7.8
2017-10-25T00:21:19.879Z,7.8
2017-10-25T00:21:23.955Z,7.8
2017-10-25T00:21:27.906Z,7.81
2017-10-25T00:21:32.127Z,7.8
2017-10-25T00:21:36.344Z,7.79
2017-10-25T00:21:40.290Z,7.8
2017-10-25T00:21:44.505Z,7.8
2017-10-25T00:21:48.596Z,7.8
2017-10-25T00:21:52.675Z,7.8
2017-10-25T00:21:56.627Z,7.8
2017-10-25T00:22:00.442Z,7.8
2017-10-25T00:22:04.815Z,7.8
2017-10-25T00:22:08.766Z,7.8
2017-10-25T00:22:12.582Z,7.8
2017-10-25T00:22:16.526Z,7.79
2017-10-25T00:22:20.733Z,7.8
2017-10-25T00:22:24.689Z,7.8
2017-10-25T00:22:28.636Z,7.8
2017-10-25T00:22:32.450Z,7.8
2017-10-25T00:22:36.264Z,7.8
2017-10-25T00:22:40.351Z,7.8
2017-10-25T00:22:44.434Z,7.8
2017-10-25T00:22:48.509Z,7.8
2017-10-25T00:22:52.326Z,7.8
2017-10-25T00:22:56.411Z,7.8
2017-10-25T00:23:00.233Z,7.8
2017-10-25T00:23:03.908Z,7.8
2017-10-25T00:23:07.851Z,7.8
2017-10-25T00:23:11.793Z,7.8
2017-10-25T00:23:15.740Z,7.8
2017-10-25T00:23:19.953Z,7.8
2017-10-25T00:23:23.629Z,7.8
2017-10-25T00:23:27.318Z,7.79
2017-10-25T00:23:31.402Z,7.79
2017-10-25T00:23:35.480Z,7.8
2017-10-25T00:23:39.552Z,7.8
2017-10-25T00:23:43.500Z,7.8
2017-10-25T00:23:47.710Z,7.8
2017-10-25T00:23:51.810Z,7.8
2017-10-25T00:23:55.892Z,7.8
2017-10-25T00:23:59.975Z,7.8
2017-10-25T00:24:04.098Z,7.81
2017-10-25T00:24:08.065Z,7.81
2017-10-25T00:24:12.152Z,7.8
2017-10-25T00:24:16.100Z,7.8
2017-10-25T00:24:20.309Z,7.8
2017-10-25T00:24:24.393Z,7.81
2017-10-25T00:24:28.595Z,7.8
2017-10-25T00:24:32.418Z,7.81
2017-10-25T00:24:36.506Z,7.81
2017-10-25T00:24:40.864Z,7.81
2017-10-25T00:24:44.814Z,7.8
2017-10-25T00:24:48.628Z,7.81
2017-10-25T00:24:52.305Z,7.81
2017-10-25T00:24:55.988Z,7.81
2017-10-25T00:24:59.799Z,7.81
2017-10-25T00:25:03.880Z,7.81
2017-10-25T00:25:07.823Z,7.81
2017-10-25T00:25:11.910Z,7.81
2017-10-25T00:25:15.992Z,7.81
2017-10-25T00:25:20.214Z,7.8
2017-10-25T00:25:24.292Z,7.8
2017-10-25T00:25:28.232Z,7.81
2017-10-25T00:25:32.179Z,7.81
2017-10-25T00:25:36.392Z,7.81
2017-10-25T00:25:40.209Z,7.81
2017-10-25T00:25:44.155Z,7.81
2017-10-25T00:25:47.836Z,7.8
2017-10-25T00:25:51.915Z,7.81
2017-10-25T00:25:55.860Z,7.81
2017-10-25T00:25:59.544Z,7.82
2017-10-25T00:26:03.496Z,7.81
2017-10-25T00:26:07.314Z,7.81
2017-10-25T00:26:11.135Z,7.8
2017-10-25T00:26:15.080Z,7.81
2017-10-25T00:26:19.167Z,7.81
2017-10-25T00:26:23.120Z,7.8
2017-10-25T00:26:26.933Z,7.81
2017-10-25T00:26:31.151Z,7.81
2017-10-25T00:26:34.969Z,7.81
2017-10-25T00:26:39.047Z,7.8
2017-10-25T00:26:43.122Z,7.81
2017-10-25T00:26:47.065Z,7.81
2017-10-25T00:26:51.147Z,7.81
2017-10-25T00:26:54.961Z,7.81
2017-10-25T00:26:58.772Z,7.81
2017-10-25T00:27:03.001Z,7.81
2017-10-25T00:27:06.820Z,7.81
2017-10-25T00:27:10.771Z,7.81
2017-10-25T00:27:14.727Z,7.81
2017-10-25T00:27:19.206Z,7.81
2017-10-25T00:27:23.024Z,7.8
2017-10-25T00:27:26.978Z,7.81
2017-10-25T00:27:31.059Z,7.81
2017-10-25T00:27:35.140Z,7.8
2017-10-25T00:27:39.088Z,7.81
2017-10-25T00:27:43.166Z,7.81
2017-10-25T00:27:47.377Z,7.81
2017-10-25T00:27:51.350Z,7.81
2017-10-25T00:27:55.555Z,7.82
2017-10-25T00:27:59.367Z,7.81
2017-10-25T00:28:03.310Z,7.81
2017-10-25T00:28:07.395Z,7.82
2017-10-25T00:28:11.218Z,7.82
2017-10-25T00:28:15.440Z,7.82
2017-10-25T00:28:19.902Z,7.82
2017-10-25T00:28:23.718Z,7.82
2017-10-25T00:28:27.538Z,7.82
2017-10-25T00:28:31.779Z,7.82
2017-10-25T00:28:35.721Z,7.82
2017-10-25T00:28:39.797Z,7.82
2017-10-25T00:28:43.741Z,7.81
2017-10-25T00:28:47.682Z,7.82
2017-10-25T00:28:51.625Z,7.81
2017-10-25T00:28:55.569Z,7.82
2017-10-25T00:28:59.652Z,7.81
2017-10-25T00:29:03.774Z,7.81
2017-10-25T00:29:07.851Z,7.82
2017-10-25T00:29:12.059Z,7.81
2017-10-25T00:29:16.274Z,7.82
2017-10-25T00:29:20.085Z,7.82
2017-10-25T00:29:24.307Z,7.82
2017-10-25T00:29:28.513Z,7.82
2017-10-25T00:29:32.720Z,7.83
2017-10-25T00:29:36.935Z,7.83
2017-10-25T00:29:41.014Z,7.82
2017-10-25T00:29:45.092Z,7.82
2017-10-25T00:29:49.168Z,7.82
2017-10-25T00:29:53.262Z,7.83
2017-10-25T00:29:57.076Z,7.81
2017-10-25T00:30:01.292Z,7.82
2017-10-25T00:30:05.246Z,7.82
2017-10-25T00:30:09.465Z,7.82
2017-10-25T00:30:13.550Z,7.82
2017-10-25T00:30:17.510Z,7.82
2017-10-25T00:30:21.583Z,7.83
2017-10-25T00:30:25.786Z,7.81
2017-10-25T00:30:29.873Z,7.83
2017-10-25T00:30:33.689Z,7.83
2017-10-25T00:30:37.899Z,7.82
2017-10-25T00:30:41.982Z,7.82
2017-10-25T00:30:46.337Z,7.82
2017-10-25T00:30:50.415Z,7.82
2017-10-25T00:30:54.628Z,7.83
2017-10-25T00:30:58.708Z,7.83
2017-10-25T00:31:02.663Z,7.83
2017-10-25T00:31:06.745Z,7.82
2017-10-25T00:31:10.686Z,7.83
2017-10-25T00:31:14.895Z,7.83
2017-10-25T00:31:19.103Z,7.82
2017-10-25T00:31:23.060Z,7.83
2017-10-25T00:31:27.008Z,7.83
2017-10-25T00:31:30.958Z,7.83
2017-10-25T00:31:34.775Z,7.82
2017-10-25T00:31:38.593Z,7.83
2017-10-25T00:31:42.932Z,7.83
2017-10-25T00:31:47.137Z,7.83
2017-10-25T00:31:50.953Z,7.83
2017-10-25T00:31:54.767Z,7.83
2017-10-25T00:31:58.855Z,7.82
2017-10-25T00:32:02.804Z,7.83
2017-10-25T00:32:06.902Z,7.83
2017-10-25T00:32:10.859Z,7.83
2017-10-25T00:32:15.197Z,7.83
2017-10-25T00:32:19.281Z,7.83
2017-10-25T00:32:23.496Z,7.83
2017-10-25T00:32:27.580Z,7.84
2017-10-25T00:32:31.925Z,7.84
2017-10-25T00:32:35.611Z,7.83
2017-10-25T00:32:39.561Z,7.84
2017-10-25T00:32:43.636Z,7.83
2017-10-25T00:32:47.857Z,7.83
2017-10-25T00:32:51.684Z,7.83
2017-10-25T00:32:55.770Z,7.83
2017-10-25T00:32:59.584Z,7.83
2017-10-25T00:33:03.538Z,7.82
2017-10-25T00:33:07.486Z,7.83
2017-10-25T00:33:11.300Z,7.82
2017-10-25T00:33:15.246Z,7.83
2017-10-25T00:33:19.064Z,7.82
2017-10-25T00:33:23.006Z,7.83
2017-10-25T00:33:26.827Z,7.83
2017-10-25T00:33:30.772Z,7.82
2017-10-25T00:33:34.728Z,7.82
2017-10-25T00:33:38.948Z,7.81
2017-10-25T00:33:43.026Z,7.82
2017-10-25T00:33:46.974Z,7.83
2017-10-25T00:33:50.791Z,7.82
2017-10-25T00:33:54.872Z,7.82
2017-10-25T00:33:58.846Z,7.82
2017-10-25T00:34:03.063Z,7.82
2017-10-25T00:34:07.273Z,7.82
2017-10-25T00:34:11.365Z,7.82
2017-10-25T00:34:15.569Z,7.82
2017-10-25T00:34:19.385Z,7.83
2017-10-25T00:34:23.208Z,7.83
2017-10-25T00:34:27.417Z,7.83
2017-10-25T00:34:31.365Z,7.82
2017-10-25T00:34:35.311Z,7.82
2017-10-25T00:34:39.283Z,7.82
2017-10-25T00:34:43.225Z,7.82
2017-10-25T00:34:47.438Z,7.83
2017-10-25T00:34:51.517Z,7.82
2017-10-25T00:34:55.465Z,7.82
2017-10-25T00:34:59.542Z,7.82
2017-10-25T00:35:03.628Z,7.81
2017-10-25T00:35:07.706Z,7.82
2017-10-25T00:35:11.792Z,7.82
2017-10-25T00:35:15.876Z,7.82
2017-10-25T00:35:19.818Z,7.82
2017-10-25T00:35:23.893Z,7.81
2017-10-25T00:35:27.974Z,7.81
2017-10-25T00:35:32.196Z,7.82
2017-10-25T00:35:36.012Z,7.82
2017-10-25T00:35:39.958Z,7.82
2017-10-25T00:35:44.047Z,7.82
2017-10-25T00:35:48.390Z,7.82
2017-10-25T00:35:52.467Z,7.82
2017-10-25T00:35:56.543Z,7.82
2017-10-25T00:36:00.499Z,7.81
2017-10-25T00:36:04.571Z,7.82
2017-10-25T00:36:08.777Z,7.82
2017-10-25T00:36:12.742Z,7.82
2017-10-25T00:36:16.689Z,7.81
2017-10-25T00:36:20.509Z,7.81
2017-10-25T00:36:24.459Z,7.82
2017-10-25T00:36:28.295Z,7.82
2017-10-25T00:36:32.247Z,7.82
2017-10-25T00:36:36.189Z,7.82
2017-10-25T00:36:40.404Z,7.82
2017-10-25T00:36:44.218Z,7.81
2017-10-25T00:36:48.035Z,7.82
2017-10-25T00:36:52.110Z,7.82
2017-10-25T00:36:56.054Z,7.81
2017-10-25T00:37:00.008Z,7.81
2017-10-25T00:37:04.215Z,7.81
2017-10-25T00:37:08.293Z,7.82
2017-10-25T00:37:12.236Z,7.81
2017-10-25T00:37:16.182Z,7.81
2017-10-25T00:37:20.281Z,7.81
2017-10-25T00:37:24.227Z,7.81
2017-10-25T00:37:28.174Z,7.81
2017-10-25T00:37:32.254Z,7.82
2017-10-25T00:37:36.202Z,7.81
2017-10-25T00:37:40.535Z,7.81
2017-10-25T00:37:44.217Z,7.81
2017-10-25T00:37:48.292Z,7.81
2017-10-25T00:37:52.240Z,7.8
2017-10-25T00:37:56.313Z,7.81
2017-10-25T00:38:00.526Z,7.81
2017-10-25T00:38:04.720Z,7.81
2017-10-25T00:38:08.802Z,7.81
2017-10-25T00:38:13.150Z,7.81
2017-10-25T00:38:17.100Z,7.8
2017-10-25T00:38:21.044Z,7.81
2017-10-25T00:38:25.012Z,7.8
2017-10-25T00:38:28.831Z,7.8
2017-10-25T00:38:32.780Z,7.8
2017-10-25T00:38:36.987Z,7.8
2017-10-25T00:38:40.807Z,7.8
2017-10-25T00:38:44.887Z,7.8
2017-10-25T00:38:48.701Z,7.8
2017-10-25T00:38:52.800Z,7.8
2017-10-25T00:38:56.749Z,7.79
2017-10-25T00:39:00.953Z,7.8
2017-10-25T00:39:05.027Z,7.78
2017-10-25T00:39:09.108Z,7.8
2017-10-25T00:39:13.333Z,7.79
2017-10-25T00:39:17.148Z,7.8
2017-10-25T00:39:21.364Z,7.79
2017-10-25T00:39:25.178Z,7.8
2017-10-25T00:39:28.998Z,7.8
2017-10-25T00:39:33.341Z,7.79
2017-10-25T00:39:37.290Z,7.79
2017-10-25T00:39:41.365Z,7.79
2017-10-25T00:39:45.454Z,7.79
2017-10-25T00:39:49.265Z,7.78
2017-10-25T00:39:53.343Z,7.79
2017-10-25T00:39:57.288Z,7.79
2017-10-25T00:40:01.242Z,7.78
2017-10-25T00:40:05.622Z,7.79
2017-10-25T00:40:09.567Z,7.79
2017-10-25T00:40:13.511Z,7.78
2017-10-25T00:40:17.600Z,7.79
2017-10-25T00:40:21.810Z,7.79
2017-10-25T00:40:25.757Z,7.79
2017-10-25T00:40:29.850Z,7.79
2017-10-25T00:40:34.064Z,7.79
2017-10-25T00:40:38.138Z,7.78
2017-10-25T00:40:42.346Z,7.78
2017-10-25T00:40:46.295Z,7.77
2017-10-25T00:40:50.382Z,7.78
2017-10-25T00:40:54.187Z,7.79
2017-10-25T00:40:58.127Z,7.78
2017-10-25T00:41:02.210Z,7.78
2017-10-25T00:41:06.153Z,7.78
2017-10-25T00:41:10.237Z,7.78
2017-10-25T00:41:14.312Z,7.78
2017-10-25T00:41:18.251Z,7.77
2017-10-25T00:41:22.335Z,7.77
2017-10-25T00:41:26.300Z,7.78
2017-10-25T00:41:30.635Z,7.77
2017-10-25T00:41:34.450Z,7.77
2017-10-25T00:41:38.400Z,7.78
2017-10-25T00:41:42.217Z,7.77
2017-10-25T00:41:46.298Z,7.77
2017-10-25T00:41:50.118Z,7.78
2017-10-25T00:41:54.329Z,7.77
2017-10-25T00:41:58.401Z,7.77
2017-10-25T00:42:02.620Z,7.77
2017-10-25T00:42:06.839Z,7.78
2017-10-25T00:42:11.064Z,7.78
2017-10-25T00:42:15.005Z,7.77
2017-10-25T00:42:18.948Z,7.78
2017-10-25T00:42:23.291Z,7.77
2017-10-25T00:42:27.110Z,7.77
2017-10-25T00:42:31.186Z,7.77
2017-10-25T00:42:35.268Z,7.77
2017-10-25T00:42:39.084Z,7.77
2017-10-25T00:42:43.157Z,7.77
2017-10-25T00:42:47.122Z,7.77
2017-10-25T00:42:50.940Z,7.78
2017-10-25T00:42:54.757Z,7.78
2017-10-25T00:42:58.852Z,7.77
2017-10-25T00:43:02.955Z,7.76
2017-10-25T00:43:07.300Z,7.78
2017-10-25T00:43:11.248Z,7.77
2017-10-25T00:43:15.195Z,7.77
2017-10-25T00:43:19.271Z,7.77
2017-10-25T00:43:23.214Z,7.77
2017-10-25T00:43:27.292Z,7.77
2017-10-25T00:43:31.381Z,7.77
2017-10-25T00:43:35.721Z,7.76
2017-10-25T00:43:39.948Z,7.77
2017-10-25T00:43:43.933Z,7.77
2017-10-25T00:43:48.018Z,7.76
2017-10-25T00:43:51.964Z,7.77
2017-10-25T00:43:56.188Z,7.77
2017-10-25T00:44:00.266Z,7.76
2017-10-25T00:44:04.694Z,7.77
2017-10-25T00:44:09.054Z,7.76
2017-10-25T00:44:13.121Z,7.76
2017-10-25T00:44:17.197Z,7.76
2017-10-25T00:44:21.139Z,7.76
2017-10-25T00:44:24.953Z,7.76
2017-10-25T00:44:28.901Z,7.77
2017-10-25T00:44:32.849Z,7.76
2017-10-25T00:44:36.663Z,7.76
2017-10-25T00:44:40.888Z,7.76
2017-10-25T00:44:45.092Z,7.76
2017-10-25T00:44:49.041Z,7.76
2017-10-25T00:44:53.154Z,7.76
2017-10-25T00:44:57.109Z,7.76
2017-10-25T00:45:00.936Z,7.76
2017-10-25T00:45:04.892Z,7.76
2017-10-25T00:45:09.247Z,7.75
2017-10-25T00:45:13.196Z,7.76
2017-10-25T00:45:17.427Z,7.76
2017-10-25T00:45:21.379Z,7.75
2017-10-25T00:45:25.332Z,7.75
2017-10-25T00:45:29.413Z,7.76
2017-10-25T00:45:33.360Z,7.76
2017-10-25T00:45:37.436Z,7.75
2017-10-25T00:45:41.644Z,7.75
2017-10-25T00:45:45.731Z,7.75
2017-10-25T00:45:49.958Z,7.76
2017-10-25T00:45:53.901Z,7.75
2017-10-25T00:45:57.862Z,7.75
2017-10-25T00:46:02.080Z,7.75
2017-10-25T00:46:06.027Z,7.74
2017-10-25T00:46:09.982Z,7.75
2017-10-25T00:46:14.238Z,7.76
2017-10-25T00:46:18.307Z,7.75
2017-10-25T00:46:22.652Z,7.75
2017-10-25T00:46:26.883Z,7.75
2017-10-25T00:46:31.233Z,7.74
2017-10-25T00:46:35.178Z,7.75
2017-10-25T00:46:38.996Z,7.75
2017-10-25T00:46:42.939Z,7.74
2017-10-25T00:46:47.015Z,7.75
2017-10-25T00:46:51.364Z,7.75
2017-10-25T00:46:55.591Z,7.74
2017-10-25T00:46:59.541Z,7.75
2017-10-25T00:47:03.628Z,7.75
2017-10-25T00:47:07.849Z,7.75
2017-10-25T00:47:11.931Z,7.75
2017-10-25T00:47:15.881Z,7.75
2017-10-25T00:47:19.966Z,7.74
2017-10-25T00:47:24.068Z,7.75
2017-10-25T00:47:27.881Z,7.75
2017-10-25T00:47:31.952Z,7.74
2017-10-25T00:47:36.033Z,7.74
2017-10-25T00:47:40.113Z,7.75
2017-10-25T00:47:44.066Z,7.75
2017-10-25T00:47:48.009Z,7.73
2017-10-25T00:47:52.089Z,7.74
2017-10-25T00:47:56.035Z,7.74
2017-10-25T00:47:59.858Z,7.75
2017-10-25T00:48:04.067Z,7.74
2017-10-25T00:48:08.283Z,7.74
2017-10-25T00:48:12.623Z,7.74
2017-10-25T00:48:16.843Z,7.74
2017-10-25T00:48:20.919Z,7.74
2017-10-25T00:48:24.862Z,7.75
2017-10-25T00:48:28.941Z,7.74
2017-10-25T00:48:32.884Z,7.74
2017-10-25T00:48:36.702Z,7.74
2017-10-25T00:48:41.040Z,7.74
2017-10-25T00:48:45.121Z,7.73
2017-10-25T00:48:49.328Z,7.74
2017-10-25T00:48:53.007Z,7.73
2017-10-25T00:48:56.953Z,7.75
2017-10-25T00:49:00.913Z,7.73
2017-10-25T00:49:05.384Z,7.74
2017-10-25T00:49:09.472Z,7.74
2017-10-25T00:49:13.685Z,7.74
2017-10-25T00:49:17.503Z,7.74
2017-10-25T00:49:21.571Z,7.73
2017-10-25T00:49:25.778Z,7.74
2017-10-25T00:49:29.732Z,7.74
2017-10-25T00:49:33.412Z,7.74
2017-10-25T00:49:37.363Z,7.74
2017-10-25T00:49:41.442Z,7.74
2017-10-25T00:49:45.520Z,7.74
2017-10-25T00:49:49.729Z,7.74
2017-10-25T00:49:53.677Z,7.74
2017-10-25T00:49:57.620Z,7.74
2017-10-25T00:50:01.436Z,7.74
2017-10-25T00:50:05.381Z,7.74
2017-10-25T00:50:09.467Z,7.74
2017-10-25T00:50:13.547Z,7.74
2017-10-25T00:50:17.763Z,7.74
2017-10-25T00:50:21.979Z,7.74
2017-10-25T00:50:26.055Z,7.74
2017-10-25T00:50:30.137Z,7.73
2017-10-25T00:50:34.091Z,7.73
2017-10-25T00:50:38.162Z,7.74
2017-10-25T00:50:42.236Z,7.73
2017-10-25T00:50:46.193Z,7.74
2017-10-25T00:50:50.288Z,7.74
2017-10-25T00:50:54.358Z,7.74
2017-10-25T00:50:58.173Z,7.74
2017-10-25T00:51:02.260Z,7.74
2017-10-25T00:51:06.088Z,7.73
2017-10-25T00:51:10.158Z,7.73
2017-10-25T00:51:14.375Z,7.73
2017-10-25T00:51:18.477Z,7.73
2017-10-25T00:51:22.556Z,7.74
2017-10-25T00:51:26.371Z,7.73
2017-10-25T00:51:30.335Z,7.72
2017-10-25T00:51:34.016Z,7.73
2017-10-25T00:51:37.964Z,7.74
2017-10-25T00:51:41.775Z,7.74
2017-10-25T00:51:45.730Z,7.73
2017-10-25T00:51:49.673Z,7.73
2017-10-25T00:51:53.883Z,7.73
2017-10-25T00:51:58.090Z,7.73
2017-10-25T00:52:02.516Z,7.73
2017-10-25T00:52:06.597Z,7.74
2017-10-25T00:52:10.949Z,7.73
2017-10-25T00:52:15.162Z,7.74
2017-10-25T00:52:19.237Z,7.73
2017-10-25T00:52:23.482Z,7.73
2017-10-25T00:52:27.561Z,7.73
2017-10-25T00:52:31.379Z,7.73
2017-10-25T00:52:35.456Z,7.73
2017-10-25T00:52:39.404Z,7.73
2017-10-25T00:52:43.613Z,7.73
2017-10-25T00:52:47.560Z,7.73
2017-10-25T00:52:51.519Z,7.74
2017-10-25T00:52:55.629Z,7.74
2017-10-25T00:52:59.838Z,7.74
2017-10-25T00:53:03.658Z,7.73
2017-10-25T00:53:07.743Z,7.73
2017-10-25T00:53:11.955Z,7.74
2017-10-25T00:53:15.905Z,7.74
2017-10-25T00:53:20.125Z,7.74
2017-10-25T00:53:24.069Z,7.74
2017-10-25T00:53:28.148Z,7.74
2017-10-25T00:53:32.090Z,7.74
2017-10-25T00:53:36.050Z,7.74
2017-10-25T00:53:40.129Z,7.73
2017-10-25T00:53:44.342Z,7.73
2017-10-25T00:53:48.152Z,7.73
2017-10-25T00:53:52.094Z,7.73
2017-10-25T00:53:56.320Z,7.73